Aviation Digital Data Service (ADDS)

Output produced by METARs form (0242 UTC 21 September 2021)
found at http://aviationweather.gov/metar/data/
 
METAR text: EGJB 210150Z 36003KT 9999 FEW007 14/14 Q1029
Conditions at: EGJB (GUERNSEY AIRPORT, GB) observed 0150 UTC 21 September 2021
Temperature: 14.0°C (57°F)
Dewpoint: 14.0°C (57°F) [RH = 100%]
Pressure (altimeter): 30.38 inches Hg (1029.0 mb)
Winds: from the N (360 degrees) at 3 MPH (3 knots; 1.5 m/s)
Visibility: 6 or more miles (10+ km)
Ceiling: at least 12,000 feet AGL
Clouds: few clouds at 700 feet AGL
Weather: no significant weather observed at this time

Forecast for: EGJB (GUERNSEY AIRPORT, GB)
Text: TAF EGJB 210204Z 2103/2112 03006KT 9999 FEW010 SCT040
Forecast period: 0300 to 1200 UTC 21 September 2021
Forecast type: FROM: standard forecast or significant change
Winds: from the NNE (30 degrees) at 7 MPH (6 knots; 3.1 m/s)
Visibility: 6 or more miles (10+ km)
Ceiling: at least 12,000 feet AGL
Clouds: few clouds at 1000 feet AGL
scattered clouds at 4000 feet AGL
Weather: no significant weather forecast for this period